Time;durP1;ratioP1;P1;durP2;ratioP2;P2;SDS_P1;SDS_P2;PMS_P1;PMS_P2;Temp;Humidity;BMP_temperature;BMP_pressure;BME280_temperature;BME280_humidity;BME280_pressure;Samples;Min_cycle;Max_cycle;Signal;HPM_P1;HPM_P2
2023/01/17 00:02:13;;;;;;;;;;;;;;;3.55;100.00;98165.13;5566744;32;34354;-73
2023/01/17 00:12:13;;;;;;;;;;;;;;;3.60;100.00;98152.31;5569109;32;33625;-72
2023/01/17 00:15:21;;;;;;;;;;;;;;;3.65;100.00;98157.81;5542421;31;34455;-72
2023/01/17 00:18:29;;;;;;;;;;;;;;;3.67;100.00;98150.63;5556077;32;34337;-72
2023/01/17 01:35:43;;;;;;;;;;;;;;;4.10;100.00;98148.19;5554596;32;35412;-74
2023/01/17 01:38:53;;;;;;;;;;;;;;;4.00;100.00;98145.84;5555377;32;34367;-75
2023/01/17 01:42:00;;;;;;;;;;;;;;;3.99;100.00;98143.41;5555057;32;34862;-74
2023/01/17 01:45:17;;;;;;;;;;;;;;;3.99;100.00;98151.25;5568398;32;34087;-73
2023/01/17 01:48:43;;;;;;;;;;;;;;;4.00;100.00;98158.97;5554833;32;34376;-72
2023/01/17 01:51:57;;;;;;;;;;;;;;;3.97;100.00;98163.75;5568207;32;34957;-73
2023/01/17 01:55:07;;;;;;;;;;;;;;;3.97;100.00;98164.56;5554889;32;35143;-72
2023/01/17 01:58:17;;;;;;;;;;;;;;;4.00;100.00;98158.97;5568229;32;34248;-72
2023/01/17 02:01:22;;;;;;;;;;;;;;;4.02;100.00;98149.09;5553564;32;34994;-72
2023/01/17 02:04:33;;;;;;;;;;;;;;;4.04;100.00;98136.63;5555253;32;34300;-72
2023/01/17 02:07:50;;;;;;;;;;;;;;;4.03;100.00;98121.03;5554043;32;33347;-72
2023/01/17 02:11:01;;;;;;;;;;;;;;;3.99;100.00;98112.72;5568080;32;34261;-72
2023/01/17 02:14:06;;;;;;;;;;;;;;;3.96;100.00;98109.66;5554825;32;34358;-72
2023/01/17 02:17:13;;;;;;;;;;;;;;;3.97;100.00;98108.69;5568238;32;34145;-73
2023/01/17 02:20:32;;;;;;;;;;;;;;;3.94;100.00;98104.59;5568076;32;34140;-72
2023/01/17 02:23:51;;;;;;;;;;;;;;;3.96;100.00;98102.63;5553977;32;34419;-73
2023/01/17 02:27:15;;;;;;;;;;;;;;;4.03;100.00;98114.00;5567815;32;34504;-73
2023/01/17 02:30:22;;;;;;;;;;;;;;;3.96;100.00;98107.84;5567933;32;34265;-72
2023/01/17 02:33:38;;;;;;;;;;;;;;;3.99;100.00;98106.66;5554545;32;34478;-72
2023/01/17 02:37:06;;;;;;;;;;;;;;;3.96;100.00;98115.72;5554802;32;34869;-73
2023/01/17 02:40:12;;;;;;;;;;;;;;;3.95;100.00;98108.84;5567889;32;34351;-72
2023/01/17 02:43:22;;;;;;;;;;;;;;;3.96;100.00;98107.03;5554589;32;34023;-72
2023/01/17 02:46:30;;;;;;;;;;;;;;;3.96;100.00;98102.63;5541466;32;33135;-71
2023/01/17 02:49:41;;;;;;;;;;;;;;;3.95;100.00;98093.09;5555441;32;34876;-72
2023/01/17 02:52:48;;;;;;;;;;;;;;;3.91;100.00;98083.97;5554321;32;34238;-73
2023/01/17 02:56:00;;;;;;;;;;;;;;;3.92;100.00;98083.00;5567808;32;33820;-73
2023/01/17 02:59:10;;;;;;;;;;;;;;;3.91;100.00;98083.97;5567537;32;34335;-73
2023/01/17 03:02:20;;;;;;;;;;;;;;;3.91;100.00;98055.13;5542532;32;34797;-73
2023/01/17 03:05:38;;;;;;;;;;;;;;;3.89;100.00;98044.00;5567937;32;34141;-73
2023/01/17 03:08:46;;;;;;;;;;;;;;;3.89;100.00;98036.13;5567612;32;34884;-73
2023/01/17 03:11:54;;;;;;;;;;;;;;;3.86;100.00;98034.69;5554240;32;33790;-73
2023/01/17 03:15:02;;;;;;;;;;;;;;;3.88;100.00;98034.50;5567270;32;34891;-73
2023/01/17 03:18:13;;;;;;;;;;;;;;;3.88;100.00;98016.12;5567569;32;35070;-73
2023/01/17 03:21:21;;;;;;;;;;;;;;;3.96;100.00;98026.53;5567404;32;34963;-72
2023/01/17 03:24:30;;;;;;;;;;;;;;;3.92;100.00;98022.66;5567428;32;34275;-73
2023/01/17 03:27:41;;;;;;;;;;;;;;;3.90;100.00;98014.16;5567437;32;34950;-74
2023/01/17 03:30:49;;;;;;;;;;;;;;;3.98;100.00;98006.16;5567147;32;34799;-74
2023/01/17 03:34:01;;;;;;;;;;;;;;;3.91;100.00;98002.66;5567378;32;34223;-73
2023/01/17 03:37:11;;;;;;;;;;;;;;;3.89;100.00;98008.09;5541165;32;33692;-74
2023/01/17 03:40:21;;;;;;;;;;;;;;;3.92;100.00;98006.94;5554036;32;34200;-73
2023/01/17 03:43:29;;;;;;;;;;;;;;;3.96;100.00;97996.87;5552994;32;34986;-73
2023/01/17 03:46:37;;;;;;;;;;;;;;;3.93;100.00;97985.75;5553819;32;34240;-73
2023/01/17 03:49:48;;;;;;;;;;;;;;;3.93;100.00;97988.34;5540212;32;33681;-73
2023/01/17 03:52:57;;;;;;;;;;;;;;;3.90;100.00;97993.16;5567091;32;33719;-73
2023/01/17 03:56:08;;;;;;;;;;;;;;;3.93;100.00;97983.13;5554084;32;34915;-73
2023/01/17 03:59:18;;;;;;;;;;;;;;;3.96;100.00;97975.88;5566842;32;35131;-75
2023/01/17 04:02:27;;;;;;;;;;;;;;;3.91;100.00;97972.00;5566786;32;35154;-73
2023/01/17 04:05:38;;;;;;;;;;;;;;;3.99;100.00;97970.25;5566698;32;34091;-74
2023/01/17 04:08:47;;;;;;;;;;;;;;;4.02;100.00;97969.91;5566806;32;33662;-74
2023/01/17 04:11:56;;;;;;;;;;;;;;;3.99;100.00;97980.75;5540226;32;33224;-74
2023/01/17 04:15:03;;;;;;;;;;;;;;;4.02;100.00;97980.41;5566363;32;34885;-73
2023/01/17 04:18:10;;;;;;;;;;;;;;;4.05;100.00;97974.78;5553206;32;33845;-74
2023/01/17 04:21:14;;;;;;;;;;;;;;;4.05;100.00;97969.53;5566487;32;34922;-74
2023/01/17 04:24:23;;;;;;;;;;;;;;;4.07;100.00;97970.94;5566592;32;33984;-73
2023/01/17 04:27:32;;;;;;;;;;;;;;;4.09;100.00;97970.78;5540131;32;34294;-73
2023/01/17 04:30:43;;;;;;;;;;;;;;;4.09;100.00;97971.59;5553426;32;34858;-73
2023/01/17 04:33:52;;;;;;;;;;;;;;;4.09;100.00;97979.47;5540049;32;33367;-74
2023/01/17 04:37:01;;;;;;;;;;;;;;;4.13;100.00;97974.66;5566345;32;34904;-73
2023/01/17 04:40:09;;;;;;;;;;;;;;;4.16;100.00;97974.31;5566216;32;34129;-73
2023/01/17 04:43:17;;;;;;;;;;;;;;;4.17;100.00;97974.09;5566211;32;34689;-73
2023/01/17 04:46:23;;;;;;;;;;;;;;;4.18;100.00;97975.72;5566204;32;34299;-75
2023/01/17 04:49:31;;;;;;;;;;;;;;;4.22;100.00;97965.66;5552811;32;34281;-74
2023/01/17 04:52:38;;;;;;;;;;;;;;;4.22;100.00;97971.72;5566402;32;34199;-74
2023/01/17 04:55:45;;;;;;;;;;;;;;;4.24;100.00;97977.62;5554035;32;32759;-74
2023/01/17 04:58:52;;;;;;;;;;;;;;;4.30;100.00;97963.75;5543227;32;34327;-75
2023/01/17 05:02:02;;;;;;;;;;;;;;;4.27;100.00;97958.84;5568797;32;33965;-75
2023/01/17 05:05:07;;;;;;;;;;;;;;;4.25;100.00;97960.06;5542032;32;33970;-75
2023/01/17 05:08:14;;;;;;;;;;;;;;;4.22;100.00;97970.91;5568640;32;33772;-75
2023/01/17 05:11:21;;;;;;;;;;;;;;;4.29;100.00;97964.75;5542630;32;31997;-75
2023/01/17 05:14:33;;;;;;;;;;;;;;;4.31;100.00;97977.66;5568988;32;34235;-75
2023/01/17 05:17:38;;;;;;;;;;;;;;;4.35;100.00;97971.06;5555137;32;34052;-76
2023/01/17 05:20:45;;;;;;;;;;;;;;;4.35;100.00;97977.12;5555144;32;34754;-76
2023/01/17 05:23:54;;;;;;;;;;;;;;;4.36;100.00;97964.78;5567658;32;34214;-75
2023/01/17 05:27:02;;;;;;;;;;;;;;;4.41;100.00;97964.22;5555487;32;34282;-75
2023/01/17 05:30:08;;;;;;;;;;;;;;;4.44;100.00;97972.56;5554818;32;34316;-75
2023/01/17 05:33:15;;;;;;;;;;;;;;;4.43;100.00;97978.81;5555069;32;34293;-74
2023/01/17 05:36:22;;;;;;;;;;;;;;;4.41;100.00;97972.09;5555170;32;34370;-74
2023/01/17 05:39:33;;;;;;;;;;;;;;;4.42;100.00;97973.75;5568559;32;34190;-74
2023/01/17 05:42:44;;;;;;;;;;;;;;;4.40;100.00;97978.38;5541989;32;33202;-75
2023/01/17 05:45:52;;;;;;;;;;;;;;;4.40;100.00;97981.00;5568592;32;34194;-75
2023/01/17 05:48:59;;;;;;;;;;;;;;;4.38;100.00;97973.31;5567953;32;34579;-74
2023/01/17 05:52:08;;;;;;;;;;;;;;;4.38;100.00;97982.00;5567703;32;34216;-75
2023/01/17 05:55:12;;;;;;;;;;;;;;;4.39;100.00;97995.94;5567309;32;34330;-76
2023/01/17 05:58:19;;;;;;;;;;;;;;;4.38;100.00;98018.75;5553704;32;34802;-75
2023/01/17 06:01:25;;;;;;;;;;;;;;;4.43;100.00;98012.94;5554341;32;34385;-75
2023/01/17 06:04:29;;;;;;;;;;;;;;;4.40;100.00;98025.63;5557060;32;33487;-76
2023/01/17 06:07:35;;;;;;;;;;;;;;;4.43;100.00;98025.25;5553210;32;35158;-76
2023/01/17 06:10:41;;;;;;;;;;;;;;;4.45;100.00;98024.06;5558800;32;34784;-76
2023/01/17 06:13:46;;;;;;;;;;;;;;;4.49;100.00;98035.81;5554434;32;34219;-77
2023/01/17 06:16:53;;;;;;;;;;;;;;;4.44;100.00;98042.63;5555135;32;34443;-74
2023/01/17 06:19:58;;;;;;;;;;;;;;;4.50;100.00;98040.09;5567039;32;34286;-75
2023/01/17 06:23:06;;;;;;;;;;;;;;;4.48;100.00;98034.19;5567867;32;33834;-74
2023/01/17 06:26:10;;;;;;;;;;;;;;;4.56;100.00;98043.75;5541277;32;33591;-75
2023/01/17 06:29:14;;;;;;;;;;;;;;;4.42;100.00;98040.19;5540567;32;34275;-75
2023/01/17 06:32:19;;;;;;;;;;;;;;;4.38;100.00;98041.56;5568101;32;34462;-76
2023/01/17 06:35:24;;;;;;;;;;;;;;;4.40;100.00;98041.38;5554307;32;34364;-76
2023/01/17 06:38:28;;;;;;;;;;;;;;;4.38;100.00;98042.37;5553041;32;34892;-75
2023/01/17 06:41:32;;;;;;;;;;;;;;;4.39;100.00;98048.44;5562774;32;34233;-74
2023/01/17 06:44:36;;;;;;;;;;;;;;;4.37;100.00;98061.75;5566003;32;34845;-76
2023/01/17 06:47:41;;;;;;;;;;;;;;;4.34;100.00;98072.63;5554521;32;34639;-77
2023/01/17 06:50:48;;;;;;;;;;;;;;;4.31;100.00;98085.28;5566925;32;34082;-77
2023/01/17 06:53:52;;;;;;;;;;;;;;;4.26;100.00;98090.28;5567076;32;33986;-76
2023/01/17 06:56:56;;;;;;;;;;;;;;;4.31;100.00;98093.16;5556172;32;34628;-76
2023/01/17 07:00:01;;;;;;;;;;;;;;;4.33;100.00;98104.28;5567654;32;34982;-76
2023/01/17 07:03:06;;;;;;;;;;;;;;;4.32;100.00;98107.91;5569057;32;34950;-78
2023/01/17 07:06:10;;;;;;;;;;;;;;;4.29;100.00;98108.28;5554777;32;35196;-75
2023/01/17 07:09:14;;;;;;;;;;;;;;;4.23;100.00;98114.25;5567591;32;35124;-77
2023/01/17 07:12:19;;;;;;;;;;;;;;;4.20;100.00;98125.13;5566377;32;32889;-75
2023/01/17 07:15:22;;;;;;;;;;;;;;;4.13;100.00;98135.53;5567118;32;33936;-76
2023/01/17 07:18:26;;;;;;;;;;;;;;;4.21;100.00;98145.12;5547934;32;34387;-75
2023/01/17 07:21:30;;;;;;;;;;;;;;;4.22;100.00;98141.50;5540316;32;34922;-75
2023/01/17 07:24:36;;;;;;;;;;;;;;;4.15;100.00;98143.22;5552128;32;34169;-76
2023/01/17 07:27:40;;;;;;;;;;;;;;;4.19;100.00;98149.72;5540730;32;34669;-76
2023/01/17 07:30:44;;;;;;;;;;;;;;;4.10;100.00;98153.44;5551565;32;34231;-75
2023/01/17 07:33:47;;;;;;;;;;;;;;;4.09;100.00;98154.44;5549045;32;33161;-76
2023/01/17 07:36:53;;;;;;;;;;;;;;;4.00;100.00;98161.59;5528822;32;32987;-75
2023/01/17 07:39:57;;;;;;;;;;;;;;;3.93;100.00;98161.47;5530405;32;35542;-76
2023/01/17 07:43:12;;;;;;;;;;;;;;;3.80;100.00;98170.97;5524320;32;33437;-76
2023/01/17 07:46:16;;;;;;;;;;;;;;;3.74;100.00;98180.34;5554642;32;34173;-73
2023/01/17 07:49:21;;;;;;;;;;;;;;;3.66;100.00;98188.31;5552282;32;34348;-76
2023/01/17 07:52:25;;;;;;;;;;;;;;;3.63;100.00;98199.12;5522368;32;33275;-76
2023/01/17 07:55:29;;;;;;;;;;;;;;;3.67;100.00;98210.09;5518143;32;34941;-73
2023/01/17 07:58:33;;;;;;;;;;;;;;;3.73;100.00;98219.84;5551322;32;34485;-73
2023/01/17 08:01:38;;;;;;;;;;;;;;;3.48;100.00;98225.31;5552552;32;33944;-75
2023/01/17 08:04:42;;;;;;;;;;;;;;;3.43;100.00;98227.66;5540129;32;34266;-74
2023/01/17 08:07:46;;;;;;;;;;;;;;;3.50;100.00;98233.00;5566305;32;34321;-74
2023/01/17 08:10:50;;;;;;;;;;;;;;;3.47;100.00;98228.94;5565562;32;34135;-75
2023/01/17 08:13:58;;;;;;;;;;;;;;;3.42;100.00;98236.50;5566342;32;34838;-73
2023/01/17 08:17:05;;;;;;;;;;;;;;;3.44;100.00;98241.56;5566531;32;34608;-73
2023/01/17 08:20:08;;;;;;;;;;;;;;;3.29;100.00;98246.72;5565580;32;34911;-74
2023/01/17 08:23:12;;;;;;;;;;;;;;;3.27;100.00;98253.16;5565772;32;34241;-75
2023/01/17 08:26:22;;;;;;;;;;;;;;;3.28;100.00;98257.41;5565402;32;34141;-74
2023/01/17 08:29:25;;;;;;;;;;;;;;;3.38;100.00;98274.53;5552016;32;35025;-73
2023/01/17 08:32:28;;;;;;;;;;;;;;;3.60;100.00;98275.53;5567635;32;34912;-73
2023/01/17 08:35:32;;;;;;;;;;;;;;;3.85;100.00;98263.03;5569179;32;34697;-74
2023/01/17 08:38:39;;;;;;;;;;;;;;;4.14;100.00;98276.22;5568847;32;35058;-75
2023/01/17 08:41:45;;;;;;;;;;;;;;;4.39;100.00;98287.31;5546823;32;33905;-74
2023/01/17 08:44:50;;;;;;;;;;;;;;;4.31;100.00;98290.81;5550695;32;33018;-74
2023/01/17 08:47:56;;;;;;;;;;;;;;;4.41;100.00;98303.69;5554513;32;33798;-72
2023/01/17 08:51:03;;;;;;;;;;;;;;;4.70;100.00;98290.56;5555586;32;34542;-73
2023/01/17 08:54:11;;;;;;;;;;;;;;;4.48;100.00;98290.66;5550794;32;34578;-72
2023/01/17 08:57:19;;;;;;;;;;;;;;;4.29;100.00;98277.06;5537115;32;33065;-73
2023/01/17 09:00:25;;;;;;;;;;;;;;;3.87;100.00;98277.59;5567531;31;34097;-73
2023/01/17 09:03:31;;;;;;;;;;;;;;;3.78;100.00;98285.72;5554554;32;33511;-73
2023/01/17 09:06:39;;;;;;;;;;;;;;;3.69;100.00;98278.91;5554201;32;34340;-74
2023/01/17 09:09:43;;;;;;;;;;;;;;;3.73;100.00;98288.84;5554847;32;34766;-73
2023/01/17 09:12:49;;;;;;;;;;;;;;;3.70;100.00;98283.16;5554831;32;34146;-73
2023/01/17 09:15:55;;;;;;;;;;;;;;;3.73;100.00;98278.37;5541691;32;33118;-73
2023/01/17 09:19:01;;;;;;;;;;;;;;;3.86;100.00;98304.84;5555411;32;34755;-73
2023/01/17 09:22:06;;;;;;;;;;;;;;;3.89;100.00;98306.28;5568210;32;34201;-73
2023/01/17 09:25:10;;;;;;;;;;;;;;;3.89;100.00;98303.66;5554239;32;33869;-73
2023/01/17 09:28:13;;;;;;;;;;;;;;;3.92;100.00;98308.56;5541198;31;33719;-75
2023/01/17 09:31:19;;;;;;;;;;;;;;;4.05;100.00;98311.41;5554659;32;34835;-74
2023/01/17 09:34:23;;;;;;;;;;;;;;;4.02;100.00;98303.88;5554748;32;35187;-74
2023/01/17 09:37:27;;;;;;;;;;;;;;;3.97;100.00;98313.28;5541090;32;32974;-73
2023/01/17 09:40:31;;;;;;;;;;;;;;;4.09;100.00;98319.75;5552917;32;34229;-72
2023/01/17 09:43:42;;;;;;;;;;;;;;;4.11;100.00;98331.69;5554051;32;34935;-72
2023/01/17 09:46:47;;;;;;;;;;;;;;;4.42;100.00;98331.56;5567960;32;34414;-72
2023/01/17 09:49:55;;;;;;;;;;;;;;;4.41;100.00;98324.69;5568052;32;34939;-72
2023/01/17 09:53:04;;;;;;;;;;;;;;;4.35;100.00;98339.37;5567822;32;34573;-72
2023/01/17 09:56:14;;;;;;;;;;;;;;;4.37;100.00;98336.53;5566925;32;33929;-72
2023/01/17 09:59:26;;;;;;;;;;;;;;;4.43;100.00;98345.53;5568350;32;35041;-71
2023/01/17 10:02:54;;;;;;;;;;;;;;;4.62;100.00;98351.06;5555060;32;33876;-72
2023/01/17 10:06:09;;;;;;;;;;;;;;;4.69;100.00;98362.50;5552073;32;33891;-72
2023/01/17 10:09:18;;;;;;;;;;;;;;;4.81;100.00;98352.34;5554288;32;34829;-72
2023/01/17 10:12:46;;;;;;;;;;;;;;;4.78;100.00;98365.88;5554339;32;34198;-72
2023/01/17 10:16:00;;;;;;;;;;;;;;;4.80;100.00;98366.47;5554135;32;34543;-72
2023/01/17 10:19:08;;;;;;;;;;;;;;;4.90;100.00;98368.84;5541228;32;33388;-75
2023/01/17 10:22:38;;;;;;;;;;;;;;;4.91;100.00;98360.78;5567637;32;34906;-72
2023/01/17 10:25:46;;;;;;;;;;;;;;;4.93;100.00;98369.31;5550663;32;34051;-71
2023/01/17 10:28:58;;;;;;;;;;;;;;;5.09;100.00;98374.38;5567472;31;34777;-72
2023/01/17 10:32:02;;;;;;;;;;;;;;;5.31;100.00;98371.84;5567222;32;34274;-71
2023/01/17 10:35:15;;;;;;;;;;;;;;;5.44;100.00;98364.09;5567040;32;34333;-71
2023/01/17 10:38:23;;;;;;;;;;;;;;;5.55;100.00;98367.06;5566593;32;33414;-72
2023/01/17 10:41:37;;;;;;;;;;;;;;;5.49;100.00;98357.28;5568114;32;34305;-71
2023/01/17 10:45:00;;;;;;;;;;;;;;;5.67;100.00;98360.31;5554039;32;34287;-71
2023/01/17 10:48:20;;;;;;;;;;;;;;;5.83;100.00;98343.50;5552840;32;34505;-71
2023/01/17 10:51:30;;;;;;;;;;;;;;;5.99;100.00;98337.22;5566322;32;33314;-71
2023/01/17 10:54:55;;;;;;;;;;;;;;;5.92;100.00;98338.94;5553363;32;34248;-71
2023/01/17 10:58:01;;;;;;;;;;;;;;;5.97;100.00;98340.03;5567421;32;34801;-72
2023/01/17 11:01:14;;;;;;;;;;;;;;;5.92;100.00;98334.50;5567387;32;33936;-73
2023/01/17 11:04:20;;;;;;;;;;;;;;;5.92;100.00;98325.78;5567645;32;34090;-72
2023/01/17 11:07:24;;;;;;;;;;;;;;;5.96;100.00;98317.31;5567427;32;34163;-73
2023/01/17 11:10:41;;;;;;;;;;;;;;;6.05;100.00;98313.56;5553468;32;33050;-72
2023/01/17 11:13:49;;;;;;;;;;;;;;;6.18;100.00;98312.06;5540270;32;34525;-71
2023/01/17 11:17:01;;;;;;;;;;;;;;;6.09;100.00;98293.78;5553475;32;34798;-70
2023/01/17 11:20:14;;;;;;;;;;;;;;;6.07;100.00;98298.41;5566216;32;34782;-72
2023/01/17 11:23:19;;;;;;;;;;;;;;;6.06;100.00;98296.78;5556061;32;33948;-71
2023/01/17 11:26:24;;;;;;;;;;;;;;;6.04;100.00;98301.44;5567105;32;34176;-72
2023/01/17 11:29:34;;;;;;;;;;;;;;;6.05;100.00;98295.13;5553594;32;33884;-72
2023/01/17 11:32:51;;;;;;;;;;;;;;;5.94;100.00;98282.50;5551900;32;33038;-72
2023/01/17 11:35:55;;;;;;;;;;;;;;;5.95;100.00;98285.97;5550527;32;33686;-71
2023/01/17 11:39:04;;;;;;;;;;;;;;;6.07;100.00;98279.16;5542875;31;34633;-71
2023/01/17 11:42:30;;;;;;;;;;;;;;;6.06;100.00;98267.81;5569642;31;34172;-71
2023/01/17 11:45:35;;;;;;;;;;;;;;;6.12;100.00;98258.34;5572533;31;34136;-72
2023/01/17 11:48:40;;;;;;;;;;;;;;;6.04;100.00;98258.50;5564613;31;34393;-72
2023/01/17 11:51:44;;;;;;;;;;;;;;;5.98;100.00;98260.06;5558225;31;33117;-71
2023/01/17 11:54:49;;;;;;;;;;;;;;;6.03;100.00;98262.13;5553430;32;34043;-71
2023/01/17 11:57:52;;;;;;;;;;;;;;;6.25;100.00;98262.87;5566498;32;33080;-72
2023/01/17 12:01:02;;;;;;;;;;;;;;;6.16;100.00;98264.84;5566641;32;34212;-71
2023/01/17 12:04:21;;;;;;;;;;;;;;;6.16;100.00;98270.13;5566176;32;35152;-72
2023/01/17 12:07:29;;;;;;;;;;;;;;;6.09;100.00;98296.41;5568957;32;35343;-71
2023/01/17 12:10:36;;;;;;;;;;;;;;;6.41;100.00;98310.00;5542480;32;33575;-71
2023/01/17 12:14:01;;;;;;;;;;;;;;;6.59;100.00;98296.34;5554589;32;33283;-70
2023/01/17 12:17:24;;;;;;;;;;;;;;;6.92;100.00;98292.09;5568769;32;34350;-71
2023/01/17 12:20:36;;;;;;;;;;;;;;;7.46;100.00;98301.81;5569050;32;34081;-72
2023/01/17 12:23:55;;;;;;;;;;;;;;;8.34;100.00;98301.56;5568464;32;34515;-72
2023/01/17 12:27:08;;;;;;;;;;;;;;;8.18;100.00;98294.03;5553331;32;32912;-71
2023/01/17 12:30:37;;;;;;;;;;;;;;;8.44;100.00;98295.88;5541959;32;33866;-72
2023/01/17 12:33:42;;;;;;;;;;;;;;;8.60;100.00;98295.47;5555032;32;33739;-72
2023/01/17 12:36:57;;;;;;;;;;;;;;;8.12;100.00;98300.13;5554672;32;34376;-72
2023/01/17 12:40:05;;;;;;;;;;;;;;;8.37;100.00;98287.16;5567899;32;34503;-71
2023/01/17 12:43:18;;;;;;;;;;;;;;;8.82;94.76;98299.47;5541562;32;32928;-72
2023/01/17 12:46:29;;;;;;;;;;;;;;;8.60;98.35;98306.84;5567023;32;33006;-71
2023/01/17 12:49:45;;;;;;;;;;;;;;;8.79;94.70;98296.44;5556653;32;34182;-72
2023/01/17 12:53:15;;;;;;;;;;;;;;;8.67;97.69;98299.69;5568424;32;34898;-72
2023/01/17 12:56:46;;;;;;;;;;;;;;;8.32;93.37;98302.81;5552001;31;34199;-71
2023/01/17 13:00:09;;;;;;;;;;;;;;;8.23;96.49;98294.22;5547164;31;34711;-71
2023/01/17 13:03:28;;;;;;;;;;;;;;;8.47;93.71;98287.56;5568659;32;34396;-72
2023/01/17 13:06:51;;;;;;;;;;;;;;;8.32;95.17;98282.50;5567775;32;34362;-72
2023/01/17 13:10:19;;;;;;;;;;;;;;;7.88;93.32;98293.63;5554558;32;34347;-69
2023/01/17 13:13:24;;;;;;;;;;;;;;;7.78;99.27;98288.72;5552854;32;34843;-70
2023/01/17 13:16:32;;;;;;;;;;;;;;;7.56;95.56;98286.44;5546864;32;33545;-70
2023/01/17 13:19:43;;;;;;;;;;;;;;;7.51;99.65;98283.56;5548122;32;34717;-70
2023/01/17 13:22:49;;;;;;;;;;;;;;;7.43;100.00;98276.66;5535474;32;34041;-70
2023/01/17 13:25:55;;;;;;;;;;;;;;;7.25;100.00;98287.78;5559776;32;34992;-70
2023/01/17 13:29:03;;;;;;;;;;;;;;;7.19;100.00;98291.19;5563439;32;35128;-70
2023/01/17 13:32:16;;;;;;;;;;;;;;;7.05;100.00;98300.06;5554578;32;34723;-71
2023/01/17 13:35:26;;;;;;;;;;;;;;;7.01;100.00;98292.75;5552587;32;34957;-71
2023/01/17 13:38:40;;;;;;;;;;;;;;;7.06;100.00;98299.06;5567482;32;32669;-70
2023/01/17 13:41:49;;;;;;;;;;;;;;;7.07;100.00;98297.25;5550313;32;33347;-70
2023/01/17 13:44:53;;;;;;;;;;;;;;;6.94;100.00;98282.16;5550992;32;34673;-71
2023/01/17 13:48:09;;;;;;;;;;;;;;;6.83;100.00;98282.69;5547742;32;34179;-71
2023/01/17 13:51:13;;;;;;;;;;;;;;;6.77;100.00;98273.78;5548706;32;35451;-71
2023/01/17 13:54:30;;;;;;;;;;;;;;;6.77;100.00;98281.69;5547904;32;33923;-70
2023/01/17 13:57:42;;;;;;;;;;;;;;;6.74;100.00;98265.44;5534834;32;34423;-71
2023/01/17 14:00:48;;;;;;;;;;;;;;;6.69;100.00;98267.81;5548679;32;34704;-70
2023/01/17 14:03:51;;;;;;;;;;;;;;;6.65;100.00;98256.06;5550866;32;34622;-71
2023/01/17 14:06:59;;;;;;;;;;;;;;;6.61;100.00;98244.28;5557020;32;33162;-71
2023/01/17 14:10:38;;;;;;;;;;;;;;;6.53;100.00;98240.78;5553485;32;33044;-71
2023/01/17 14:13:44;;;;;;;;;;;;;;;6.50;100.00;98230.66;5516214;32;34374;-70
2023/01/17 14:16:49;;;;;;;;;;;;;;;6.42;100.00;98214.19;5567471;32;35381;-71
2023/01/17 14:20:11;;;;;;;;;;;;;;;6.41;100.00;98205.47;5568047;32;34624;-71
2023/01/17 14:23:23;;;;;;;;;;;;;;;6.36;100.00;98194.72;5555948;32;34742;-71
2023/01/17 14:26:31;;;;;;;;;;;;;;;6.33;100.00;98194.28;5547804;32;34169;-71
2023/01/17 14:29:39;;;;;;;;;;;;;;;6.26;100.00;98191.59;5537739;32;34138;-70
2023/01/17 14:33:03;;;;;;;;;;;;;;;6.24;100.00;98200.72;5547110;32;34572;-69
2023/01/17 14:36:26;;;;;;;;;;;;;;;6.18;100.00;98183.88;5549573;32;33911;-71
2023/01/17 14:39:30;;;;;;;;;;;;;;;6.19;100.00;98167.09;5555598;32;34015;-70
2023/01/17 14:42:36;;;;;;;;;;;;;;;6.12;100.00;98164.41;5549798;32;34323;-70
2023/01/17 14:45:42;;;;;;;;;;;;;;;6.06;100.00;98153.81;5549041;32;34191;-70
2023/01/17 14:48:47;;;;;;;;;;;;;;;6.01;100.00;98151.75;5559665;32;32707;-70
2023/01/17 14:51:59;;;;;;;;;;;;;;;5.96;100.00;98166.50;5551272;32;34136;-70
2023/01/17 14:55:13;;;;;;;;;;;;;;;5.96;100.00;98161.25;5546661;32;34942;-70
2023/01/17 14:58:17;;;;;;;;;;;;;;;5.96;100.00;98148.06;5547559;32;34319;-71
2023/01/17 15:01:23;;;;;;;;;;;;;;;5.89;100.00;98134.91;5546894;32;34190;-70
2023/01/17 15:04:29;;;;;;;;;;;;;;;5.86;100.00;98147.56;5547768;32;34918;-70
2023/01/17 15:07:36;;;;;;;;;;;;;;;5.86;100.00;98137.06;5546973;32;33833;-70
2023/01/17 15:10:50;;;;;;;;;;;;;;;5.87;100.00;98136.09;5546852;32;34227;-71
2023/01/17 15:13:57;;;;;;;;;;;;;;;5.80;100.00;98137.84;5547652;32;34125;-70
2023/01/17 15:17:09;;;;;;;;;;;;;;;5.77;100.00;98139.03;5559494;32;33848;-70
2023/01/17 15:20:15;;;;;;;;;;;;;;;5.76;100.00;98157.66;5553586;31;34286;-70
2023/01/17 15:23:20;;;;;;;;;;;;;;;5.83;100.00;98148.78;5555520;32;33352;-70
2023/01/17 15:26:25;;;;;;;;;;;;;;;5.80;100.00;98138.66;5558568;32;34338;-70
2023/01/17 15:29:32;;;;;;;;;;;;;;;5.82;100.00;98141.87;5566102;32;34155;-70
2023/01/17 15:32:37;;;;;;;;;;;;;;;5.88;100.00;98137.72;5551380;32;34280;-71
2023/01/17 15:35:40;;;;;;;;;;;;;;;5.91;100.00;98142.59;5566096;32;34542;-71
2023/01/17 15:39:02;;;;;;;;;;;;;;;5.85;100.00;98141.53;5538748;32;33341;-70
2023/01/17 15:42:07;;;;;;;;;;;;;;;5.83;100.00;98122.47;5551865;32;33030;-70
2023/01/17 15:45:18;;;;;;;;;;;;;;;5.88;100.00;98116.66;5566238;32;34334;-70
2023/01/17 15:48:43;;;;;;;;;;;;;;;5.82;100.00;98112.13;5565415;32;34356;-70
2023/01/17 15:52:14;;;;;;;;;;;;;;;5.84;100.00;98105.69;5544081;32;34873;-70
2023/01/17 15:55:36;;;;;;;;;;;;;;;5.82;100.00;98097.16;5537969;32;33859;-70
2023/01/17 15:58:40;;;;;;;;;;;;;;;5.78;100.00;98103.00;5540135;32;33385;-70
2023/01/17 16:01:55;;;;;;;;;;;;;;;5.79;100.00;98094.94;5539293;32;32784;-70
2023/01/17 16:05:29;;;;;;;;;;;;;;;5.78;100.00;98088.03;5566356;32;34139;-70
2023/01/17 16:08:38;;;;;;;;;;;;;;;5.76;100.00;98084.78;5543300;32;34461;-69
2023/01/17 16:11:44;;;;;;;;;;;;;;;5.70;100.00;98080.31;5565572;32;34743;-70
2023/01/17 16:14:50;;;;;;;;;;;;;;;5.68;100.00;98083.13;5561836;32;34209;-70
2023/01/17 16:18:29;;;;;;;;;;;;;;;5.75;100.00;98083.16;5564519;32;34124;-70
2023/01/17 16:21:37;;;;;;;;;;;;;;;5.71;100.00;98084.56;5546040;32;33145;-70
2023/01/17 16:24:43;;;;;;;;;;;;;;;5.72;100.00;98085.34;5565967;32;35071;-70
2023/01/17 16:27:50;;;;;;;;;;;;;;;5.79;100.00;98083.59;5551908;32;33982;-71
2023/01/17 16:30:58;;;;;;;;;;;;;;;5.72;100.00;98080.91;5564865;32;34381;-70
2023/01/17 16:34:08;;;;;;;;;;;;;;;5.69;100.00;98065.53;5538659;32;32933;-71
2023/01/17 16:37:14;;;;;;;;;;;;;;;5.75;100.00;98059.50;5565920;32;34214;-69
2023/01/17 16:40:22;;;;;;;;;;;;;;;5.68;100.00;98058.63;5565892;32;34278;-72
2023/01/17 16:43:28;;;;;;;;;;;;;;;5.61;100.00;98061.25;5552067;32;33768;-70
2023/01/17 16:46:37;;;;;;;;;;;;;;;5.57;100.00;98057.34;5566062;32;34392;-71
2023/01/17 16:49:47;;;;;;;;;;;;;;;5.38;100.00;98051.94;5553040;32;34169;-73
2023/01/17 16:52:55;;;;;;;;;;;;;;;5.25;100.00;98053.47;5540945;32;34432;-73
2023/01/17 16:56:08;;;;;;;;;;;;;;;5.11;100.00;98049.13;5554735;32;34351;-74
2023/01/17 16:59:14;;;;;;;;;;;;;;;5.03;100.00;98043.19;5568796;32;34077;-74
2023/01/17 17:02:21;;;;;;;;;;;;;;;4.94;100.00;98039.88;5554460;32;35122;-74
2023/01/17 17:05:27;;;;;;;;;;;;;;;4.89;100.00;98039.63;5554101;32;34140;-75
2023/01/17 17:08:36;;;;;;;;;;;;;;;4.80;100.00;98038.94;5555476;32;35941;-73
2023/01/17 17:11:42;;;;;;;;;;;;;;;4.72;100.00;98028.56;5542146;32;33735;-72
2023/01/17 17:14:50;;;;;;;;;;;;;;;4.67;100.00;98027.50;5568473;32;34260;-72
2023/01/17 17:17:59;;;;;;;;;;;;;;;4.62;100.00;98030.69;5529527;32;34269;-71
2023/01/17 17:21:07;;;;;;;;;;;;;;;4.54;100.00;98017.69;5528853;32;34356;-73
2023/01/17 17:24:15;;;;;;;;;;;;;;;4.52;100.00;98016.25;5534320;32;33067;-72
2023/01/17 17:27:25;;;;;;;;;;;;;;;4.46;100.00;97996.81;5534848;32;34800;-73
2023/01/17 17:30:31;;;;;;;;;;;;;;;4.46;100.00;98002.06;5528895;32;34902;-72
2023/01/17 17:33:39;;;;;;;;;;;;;;;4.47;100.00;97995.00;5529480;32;34873;-71
2023/01/17 17:36:47;;;;;;;;;;;;;;;4.47;100.00;97992.38;5528445;32;32808;-73
2023/01/17 17:40:03;;;;;;;;;;;;;;;4.44;100.00;97983.06;5528234;32;33239;-73
2023/01/17 17:43:10;;;;;;;;;;;;;;;4.41;100.00;97978.16;5530150;32;34877;-72
2023/01/17 17:46:16;;;;;;;;;;;;;;;4.38;100.00;97971.50;5528564;32;34273;-73
2023/01/17 17:49:26;;;;;;;;;;;;;;;4.43;100.00;97959.63;5532345;32;34109;-72